sensor_id;sensor_type;location;lat;lon;timestamp;temperature;humidity
11609;DHT22;5860;52.018;8.536;2023-09-07T00:00:15;17.60;99.90
11609;DHT22;5860;52.018;8.536;2023-09-07T00:02:43;17.60;99.90
11609;DHT22;5860;52.018;8.536;2023-09-07T00:05:10;17.60;99.90
11609;DHT22;5860;52.018;8.536;2023-09-07T00:07:37;17.50;99.90
11609;DHT22;5860;52.018;8.536;2023-09-07T00:10:04;17.50;99.90
11609;DHT22;5860;52.018;8.536;2023-09-07T00:12:31;17.50;99.90
11609;DHT22;5860;52.018;8.536;2023-09-07T00:14:59;17.50;99.90
11609;DHT22;5860;52.018;8.536;2023-09-07T00:17:48;17.50;99.90
11609;DHT22;5860;52.018;8.536;2023-09-07T00:20:16;17.40;99.90
11609;DHT22;5860;52.018;8.536;2023-09-07T00:22:43;17.40;99.90
11609;DHT22;5860;52.018;8.536;2023-09-07T00:25:09;17.40;99.90
11609;DHT22;5860;52.018;8.536;2023-09-07T00:27:37;17.30;99.90
11609;DHT22;5860;52.018;8.536;2023-09-07T00:30:04;17.20;99.90
11609;DHT22;5860;52.018;8.536;2023-09-07T00:32:36;17.30;99.90
11609;DHT22;5860;52.018;8.536;2023-09-07T00:35:05;17.20;99.90
11609;DHT22;5860;52.018;8.536;2023-09-07T00:37:32;17.20;99.90
11609;DHT22;5860;52.018;8.536;2023-09-07T00:39:59;17.20;99.90
11609;DHT22;5860;52.018;8.536;2023-09-07T00:42:26;17.20;99.90
11609;DHT22;5860;52.018;8.536;2023-09-07T00:44:53;17.20;99.90
11609;DHT22;5860;52.018;8.536;2023-09-07T00:47:21;17.10;99.90
11609;DHT22;5860;52.018;8.536;2023-09-07T00:49:48;17.00;99.90
11609;DHT22;5860;52.018;8.536;2023-09-07T00:52:16;17.10;99.90
11609;DHT22;5860;52.018;8.536;2023-09-07T00:54:44;17.10;99.90
11609;DHT22;5860;52.018;8.536;2023-09-07T00:57:11;17.10;99.90
11609;DHT22;5860;52.018;8.536;2023-09-07T00:59:38;17.00;99.90
11609;DHT22;5860;52.018;8.536;2023-09-07T01:02:04;17.10;99.90
11609;DHT22;5860;52.018;8.536;2023-09-07T01:04:32;17.00;99.90
11609;DHT22;5860;52.018;8.536;2023-09-07T01:07:13;17.00;99.90
11609;DHT22;5860;52.018;8.536;2023-09-07T01:09:42;17.00;99.90
11609;DHT22;5860;52.018;8.536;2023-09-07T01:12:16;16.90;99.90
11609;DHT22;5860;52.018;8.536;2023-09-07T01:14:43;16.90;99.90
11609;DHT22;5860;52.018;8.536;2023-09-07T01:17:10;16.90;99.90
11609;DHT22;5860;52.018;8.536;2023-09-07T01:19:39;16.90;99.90
11609;DHT22;5860;52.018;8.536;2023-09-07T01:22:09;16.80;99.90
11609;DHT22;5860;52.018;8.536;2023-09-07T01:24:38;16.80;99.90
11609;DHT22;5860;52.018;8.536;2023-09-07T01:27:05;16.70;99.90
11609;DHT22;5860;52.018;8.536;2023-09-07T01:29:32;16.70;99.90
11609;DHT22;5860;52.018;8.536;2023-09-07T01:32:00;16.70;99.90
11609;DHT22;5860;52.018;8.536;2023-09-07T01:34:27;16.70;99.90
11609;DHT22;5860;52.018;8.536;2023-09-07T01:36:55;16.60;99.90
11609;DHT22;5860;52.018;8.536;2023-09-07T01:39:22;16.60;99.90
11609;DHT22;5860;52.018;8.536;2023-09-07T01:41:49;16.70;99.90
11609;DHT22;5860;52.018;8.536;2023-09-07T01:44:16;16.60;99.90
11609;DHT22;5860;52.018;8.536;2023-09-07T01:46:43;16.70;99.90
11609;DHT22;5860;52.018;8.536;2023-09-07T01:49:10;16.60;99.90
11609;DHT22;5860;52.018;8.536;2023-09-07T01:51:36;16.60;99.90
11609;DHT22;5860;52.018;8.536;2023-09-07T01:54:04;16.70;99.90
11609;DHT22;5860;52.018;8.536;2023-09-07T01:56:31;16.80;99.90
11609;DHT22;5860;52.018;8.536;2023-09-07T01:58:58;16.70;99.90
11609;DHT22;5860;52.018;8.536;2023-09-07T02:01:29;16.60;99.90
11609;DHT22;5860;52.018;8.536;2023-09-07T02:03:57;16.70;99.90
11609;DHT22;5860;52.018;8.536;2023-09-07T02:06:24;16.70;99.90
11609;DHT22;5860;52.018;8.536;2023-09-07T02:08:51;16.60;99.90
11609;DHT22;5860;52.018;8.536;2023-09-07T02:11:18;16.60;99.90
11609;DHT22;5860;52.018;8.536;2023-09-07T02:13:47;16.50;99.90
11609;DHT22;5860;52.018;8.536;2023-09-07T02:16:14;16.50;99.90
11609;DHT22;5860;52.018;8.536;2023-09-07T02:18:44;16.40;99.90
11609;DHT22;5860;52.018;8.536;2023-09-07T02:21:13;16.50;99.90
11609;DHT22;5860;52.018;8.536;2023-09-07T02:23:40;16.50;99.90
11609;DHT22;5860;52.018;8.536;2023-09-07T02:26:07;16.50;99.90
11609;DHT22;5860;52.018;8.536;2023-09-07T02:28:34;16.40;99.90
11609;DHT22;5860;52.018;8.536;2023-09-07T02:31:05;16.30;99.90
11609;DHT22;5860;52.018;8.536;2023-09-07T02:33:32;16.30;99.90
11609;DHT22;5860;52.018;8.536;2023-09-07T02:36:00;16.30;99.90
11609;DHT22;5860;52.018;8.536;2023-09-07T02:38:27;16.20;99.90
11609;DHT22;5860;52.018;8.536;2023-09-07T02:40:55;16.20;99.90
11609;DHT22;5860;52.018;8.536;2023-09-07T02:43:23;16.20;99.90
11609;DHT22;5860;52.018;8.536;2023-09-07T02:45:50;16.20;99.90
11609;DHT22;5860;52.018;8.536;2023-09-07T02:48:17;16.20;99.90
11609;DHT22;5860;52.018;8.536;2023-09-07T02:56:17;16.10;99.90
11609;DHT22;5860;52.018;8.536;2023-09-07T02:58:44;16.10;99.90
11609;DHT22;5860;52.018;8.536;2023-09-07T03:01:12;16.10;99.90
11609;DHT22;5860;52.018;8.536;2023-09-07T03:03:40;16.00;99.90
11609;DHT22;5860;52.018;8.536;2023-09-07T03:06:13;16.00;99.90
11609;DHT22;5860;52.018;8.536;2023-09-07T03:08:41;16.00;99.90
11609;DHT22;5860;52.018;8.536;2023-09-07T03:11:09;16.00;99.90
11609;DHT22;5860;52.018;8.536;2023-09-07T03:13:36;16.10;99.90
11609;DHT22;5860;52.018;8.536;2023-09-07T03:16:04;16.30;99.90
11609;DHT22;5860;52.018;8.536;2023-09-07T03:18:31;16.30;99.90
11609;DHT22;5860;52.018;8.536;2023-09-07T03:21:00;16.20;99.90
11609;DHT22;5860;52.018;8.536;2023-09-07T03:23:28;16.20;99.90
11609;DHT22;5860;52.018;8.536;2023-09-07T03:25:56;16.20;99.90
11609;DHT22;5860;52.018;8.536;2023-09-07T03:28:22;16.00;99.90
11609;DHT22;5860;52.018;8.536;2023-09-07T03:30:49;16.00;99.90
11609;DHT22;5860;52.018;8.536;2023-09-07T03:33:16;15.90;99.90
11609;DHT22;5860;52.018;8.536;2023-09-07T03:35:43;15.90;99.90
11609;DHT22;5860;52.018;8.536;2023-09-07T03:38:10;15.90;99.90
11609;DHT22;5860;52.018;8.536;2023-09-07T03:40:37;15.90;99.90
11609;DHT22;5860;52.018;8.536;2023-09-07T03:43:04;15.90;99.90
11609;DHT22;5860;52.018;8.536;2023-09-07T03:45:31;15.90;99.90
11609;DHT22;5860;52.018;8.536;2023-09-07T03:47:58;15.80;99.90
11609;DHT22;5860;52.018;8.536;2023-09-07T03:50:25;15.70;99.90
11609;DHT22;5860;52.018;8.536;2023-09-07T03:52:51;15.70;99.90
11609;DHT22;5860;52.018;8.536;2023-09-07T03:55:18;15.70;99.90
11609;DHT22;5860;52.018;8.536;2023-09-07T03:57:48;15.70;99.90
11609;DHT22;5860;52.018;8.536;2023-09-07T04:00:15;15.70;99.90
11609;DHT22;5860;52.018;8.536;2023-09-07T04:02:42;15.60;99.90
11609;DHT22;5860;52.018;8.536;2023-09-07T04:05:10;15.60;99.90
11609;DHT22;5860;52.018;8.536;2023-09-07T04:07:39;15.50;99.90
11609;DHT22;5860;52.018;8.536;2023-09-07T04:10:06;15.40;99.90
11609;DHT22;5860;52.018;8.536;2023-09-07T04:12:33;15.40;99.90
11609;DHT22;5860;52.018;8.536;2023-09-07T04:15:03;15.30;99.90
11609;DHT22;5860;52.018;8.536;2023-09-07T04:17:30;15.30;99.90
11609;DHT22;5860;52.018;8.536;2023-09-07T04:19:59;15.30;99.90
11609;DHT22;5860;52.018;8.536;2023-09-07T04:22:26;15.30;99.90
11609;DHT22;5860;52.018;8.536;2023-09-07T04:24:53;15.40;99.90
11609;DHT22;5860;52.018;8.536;2023-09-07T04:27:20;15.30;99.90
11609;DHT22;5860;52.018;8.536;2023-09-07T04:29:47;15.30;99.90
11609;DHT22;5860;52.018;8.536;2023-09-07T04:32:14;15.30;99.90
11609;DHT22;5860;52.018;8.536;2023-09-07T04:34:41;15.40;99.90
11609;DHT22;5860;52.018;8.536;2023-09-07T04:37:08;15.40;99.90
11609;DHT22;5860;52.018;8.536;2023-09-07T04:39:38;15.40;99.90
11609;DHT22;5860;52.018;8.536;2023-09-07T04:42:06;15.40;99.90
11609;DHT22;5860;52.018;8.536;2023-09-07T04:44:33;15.40;99.90
11609;DHT22;5860;52.018;8.536;2023-09-07T04:47:00;15.50;99.90
11609;DHT22;5860;52.018;8.536;2023-09-07T04:49:27;15.50;99.90
11609;DHT22;5860;52.018;8.536;2023-09-07T04:51:54;15.50;99.90
11609;DHT22;5860;52.018;8.536;2023-09-07T04:54:21;15.50;99.90
11609;DHT22;5860;52.018;8.536;2023-09-07T04:56:48;15.50;99.90
11609;DHT22;5860;52.018;8.536;2023-09-07T04:59:15;15.50;99.90
11609;DHT22;5860;52.018;8.536;2023-09-07T05:01:42;15.60;99.90
11609;DHT22;5860;52.018;8.536;2023-09-07T05:04:08;15.60;99.90
11609;DHT22;5860;52.018;8.536;2023-09-07T05:06:35;15.50;99.90
11609;DHT22;5860;52.018;8.536;2023-09-07T05:09:04;15.60;99.90
11609;DHT22;5860;52.018;8.536;2023-09-07T05:11:31;15.60;99.90
11609;DHT22;5860;52.018;8.536;2023-09-07T05:14:02;15.70;99.90
11609;DHT22;5860;52.018;8.536;2023-09-07T05:16:29;15.70;99.90
11609;DHT22;5860;52.018;8.536;2023-09-07T05:18:56;15.70;99.90
11609;DHT22;5860;52.018;8.536;2023-09-07T05:21:22;15.80;99.90
11609;DHT22;5860;52.018;8.536;2023-09-07T05:23:49;15.90;99.90
11609;DHT22;5860;52.018;8.536;2023-09-07T05:26:24;16.00;99.90
11609;DHT22;5860;52.018;8.536;2023-09-07T05:28:51;16.00;99.90
11609;DHT22;5860;52.018;8.536;2023-09-07T05:31:18;16.10;99.90
11609;DHT22;5860;52.018;8.536;2023-09-07T05:33:45;16.20;99.90
11609;DHT22;5860;52.018;8.536;2023-09-07T05:36:12;16.30;99.90
11609;DHT22;5860;52.018;8.536;2023-09-07T05:38:39;16.40;99.90
11609;DHT22;5860;52.018;8.536;2023-09-07T05:41:07;16.50;99.90
11609;DHT22;5860;52.018;8.536;2023-09-07T05:43:34;16.70;99.90
11609;DHT22;5860;52.018;8.536;2023-09-07T05:46:01;16.70;99.90
11609;DHT22;5860;52.018;8.536;2023-09-07T05:48:28;16.70;99.90
11609;DHT22;5860;52.018;8.536;2023-09-07T05:50:55;16.80;99.90
11609;DHT22;5860;52.018;8.536;2023-09-07T05:53:23;16.90;99.90
11609;DHT22;5860;52.018;8.536;2023-09-07T05:55:51;17.10;99.90
11609;DHT22;5860;52.018;8.536;2023-09-07T05:58:18;18.80;99.90
11609;DHT22;5860;52.018;8.536;2023-09-07T06:00:46;21.80;99.90
11609;DHT22;5860;52.018;8.536;2023-09-07T06:03:13;24.90;99.90
11609;DHT22;5860;52.018;8.536;2023-09-07T06:05:40;24.90;99.90
11609;DHT22;5860;52.018;8.536;2023-09-07T06:08:07;27.20;99.90
11609;DHT22;5860;52.018;8.536;2023-09-07T06:10:34;27.50;99.90
11609;DHT22;5860;52.018;8.536;2023-09-07T06:13:01;28.40;99.90
11609;DHT22;5860;52.018;8.536;2023-09-07T06:15:30;28.60;99.90
11609;DHT22;5860;52.018;8.536;2023-09-07T06:17:58;29.50;99.90
11609;DHT22;5860;52.018;8.536;2023-09-07T06:20:25;31.40;99.90
11609;DHT22;5860;52.018;8.536;2023-09-07T06:22:52;31.50;99.90
11609;DHT22;5860;52.018;8.536;2023-09-07T06:25:19;32.30;99.90
11609;DHT22;5860;52.018;8.536;2023-09-07T06:27:49;32.60;99.90
11609;DHT22;5860;52.018;8.536;2023-09-07T06:30:16;32.90;99.90
11609;DHT22;5860;52.018;8.536;2023-09-07T06:32:42;30.90;99.90
11609;DHT22;5860;52.018;8.536;2023-09-07T06:35:10;31.20;99.90
11609;DHT22;5860;52.018;8.536;2023-09-07T06:37:37;30.10;99.90
11609;DHT22;5860;52.018;8.536;2023-09-07T06:40:08;27.40;99.90
11609;DHT22;5860;52.018;8.536;2023-09-07T06:42:37;28.60;99.90
11609;DHT22;5860;52.018;8.536;2023-09-07T06:45:04;28.10;99.90
11609;DHT22;5860;52.018;8.536;2023-09-07T06:47:31;26.90;99.90
11609;DHT22;5860;52.018;8.536;2023-09-07T06:49:59;28.50;99.90
11609;DHT22;5860;52.018;8.536;2023-09-07T06:52:26;27.90;99.90
11609;DHT22;5860;52.018;8.536;2023-09-07T06:54:53;28.00;99.90
11609;DHT22;5860;52.018;8.536;2023-09-07T06:57:20;26.50;99.90
11609;DHT22;5860;52.018;8.536;2023-09-07T06:59:48;26.10;99.90
11609;DHT22;5860;52.018;8.536;2023-09-07T07:02:15;27.00;99.90
11609;DHT22;5860;52.018;8.536;2023-09-07T07:04:42;25.10;99.90
11609;DHT22;5860;52.018;8.536;2023-09-07T07:07:10;24.00;99.90
11609;DHT22;5860;52.018;8.536;2023-09-07T07:09:37;22.70;99.90
11609;DHT22;5860;52.018;8.536;2023-09-07T07:12:05;21.70;99.90
11609;DHT22;5860;52.018;8.536;2023-09-07T07:14:33;21.10;99.90
11609;DHT22;5860;52.018;8.536;2023-09-07T07:17:00;20.70;99.90
11609;DHT22;5860;52.018;8.536;2023-09-07T07:19:32;20.50;99.90
11609;DHT22;5860;52.018;8.536;2023-09-07T07:21:59;20.50;99.90
11609;DHT22;5860;52.018;8.536;2023-09-07T07:24:26;20.30;99.90
11609;DHT22;5860;52.018;8.536;2023-09-07T07:26:54;20.40;99.90
11609;DHT22;5860;52.018;8.536;2023-09-07T07:29:21;20.60;99.90
11609;DHT22;5860;52.018;8.536;2023-09-07T07:31:48;20.60;99.90
11609;DHT22;5860;52.018;8.536;2023-09-07T07:34:16;20.50;99.90
11609;DHT22;5860;52.018;8.536;2023-09-07T07:36:44;20.40;99.90
11609;DHT22;5860;52.018;8.536;2023-09-07T07:39:11;20.60;99.90
11609;DHT22;5860;52.018;8.536;2023-09-07T07:41:38;20.80;99.90
11609;DHT22;5860;52.018;8.536;2023-09-07T07:44:09;20.70;99.90
11609;DHT22;5860;52.018;8.536;2023-09-07T07:46:36;20.80;99.90
11609;DHT22;5860;52.018;8.536;2023-09-07T07:49:04;20.90;99.90
11609;DHT22;5860;52.018;8.536;2023-09-07T07:51:31;21.00;99.90
11609;DHT22;5860;52.018;8.536;2023-09-07T07:53:58;21.10;99.90
11609;DHT22;5860;52.018;8.536;2023-09-07T07:56:26;21.20;99.90
11609;DHT22;5860;52.018;8.536;2023-09-07T07:58:53;21.30;99.90
11609;DHT22;5860;52.018;8.536;2023-09-07T08:01:20;21.40;99.90
11609;DHT22;5860;52.018;8.536;2023-09-07T08:03:48;21.30;99.90
11609;DHT22;5860;52.018;8.536;2023-09-07T08:06:16;21.50;99.90
11609;DHT22;5860;52.018;8.536;2023-09-07T08:08:43;21.60;99.90
11609;DHT22;5860;52.018;8.536;2023-09-07T08:11:11;21.60;99.90
11609;DHT22;5860;52.018;8.536;2023-09-07T08:13:39;21.90;99.90
11609;DHT22;5860;52.018;8.536;2023-09-07T08:16:07;22.00;99.90
11609;DHT22;5860;52.018;8.536;2023-09-07T08:18:37;22.20;99.90
11609;DHT22;5860;52.018;8.536;2023-09-07T08:21:05;22.30;99.90
11609;DHT22;5860;52.018;8.536;2023-09-07T08:23:32;22.40;99.90
11609;DHT22;5860;52.018;8.536;2023-09-07T08:25:59;22.50;99.90
11609;DHT22;5860;52.018;8.536;2023-09-07T08:28:27;22.50;99.90
11609;DHT22;5860;52.018;8.536;2023-09-07T08:30:57;22.60;99.90
11609;DHT22;5860;52.018;8.536;2023-09-07T08:33:26;22.60;99.90
11609;DHT22;5860;52.018;8.536;2023-09-07T08:35:57;22.60;99.90
11609;DHT22;5860;52.018;8.536;2023-09-07T08:38:26;22.70;99.90
11609;DHT22;5860;52.018;8.536;2023-09-07T08:40:55;22.70;99.90
11609;DHT22;5860;52.018;8.536;2023-09-07T08:43:29;22.90;99.90
11609;DHT22;5860;52.018;8.536;2023-09-07T08:46:08;23.10;99.90
11609;DHT22;5860;52.018;8.536;2023-09-07T08:48:37;23.20;99.90
11609;DHT22;5860;52.018;8.536;2023-09-07T08:51:05;23.20;99.90
11609;DHT22;5860;52.018;8.536;2023-09-07T08:53:33;23.30;99.90
11609;DHT22;5860;52.018;8.536;2023-09-07T08:56:01;23.50;99.90
11609;DHT22;5860;52.018;8.536;2023-09-07T08:58:28;23.40;99.90
11609;DHT22;5860;52.018;8.536;2023-09-07T09:00:56;23.50;99.90
11609;DHT22;5860;52.018;8.536;2023-09-07T09:03:41;23.60;99.90
11609;DHT22;5860;52.018;8.536;2023-09-07T09:06:10;23.70;99.90
11609;DHT22;5860;52.018;8.536;2023-09-07T09:08:54;23.70;99.90
11609;DHT22;5860;52.018;8.536;2023-09-07T09:11:23;23.80;99.90
11609;DHT22;5860;52.018;8.536;2023-09-07T09:13:52;23.90;99.90
11609;DHT22;5860;52.018;8.536;2023-09-07T09:16:20;24.00;99.90
11609;DHT22;5860;52.018;8.536;2023-09-07T09:18:55;23.90;99.90
11609;DHT22;5860;52.018;8.536;2023-09-07T09:21:25;24.10;99.90
11609;DHT22;5860;52.018;8.536;2023-09-07T09:23:54;24.30;99.90
11609;DHT22;5860;52.018;8.536;2023-09-07T09:26:21;24.20;99.90
11609;DHT22;5860;52.018;8.536;2023-09-07T09:28:51;24.40;99.90
11609;DHT22;5860;52.018;8.536;2023-09-07T09:31:20;24.40;99.90
11609;DHT22;5860;52.018;8.536;2023-09-07T09:33:50;24.50;99.90
11609;DHT22;5860;52.018;8.536;2023-09-07T09:36:20;24.60;99.90
11609;DHT22;5860;52.018;8.536;2023-09-07T09:38:50;24.60;99.90
11609;DHT22;5860;52.018;8.536;2023-09-07T09:41:18;24.60;99.90
11609;DHT22;5860;52.018;8.536;2023-09-07T09:43:47;24.60;99.90
11609;DHT22;5860;52.018;8.536;2023-09-07T09:46:16;24.70;99.90
11609;DHT22;5860;52.018;8.536;2023-09-07T09:48:44;25.00;99.90
11609;DHT22;5860;52.018;8.536;2023-09-07T09:51:12;25.10;99.90
11609;DHT22;5860;52.018;8.536;2023-09-07T09:53:42;25.00;99.90
11609;DHT22;5860;52.018;8.536;2023-09-07T09:56:10;25.10;99.90
11609;DHT22;5860;52.018;8.536;2023-09-07T09:58:37;25.20;99.90
11609;DHT22;5860;52.018;8.536;2023-09-07T10:01:05;25.30;99.90
11609;DHT22;5860;52.018;8.536;2023-09-07T10:03:37;25.60;99.90
11609;DHT22;5860;52.018;8.536;2023-09-07T10:06:18;25.40;99.90
11609;DHT22;5860;52.018;8.536;2023-09-07T10:11:31;25.40;99.90
11609;DHT22;5860;52.018;8.536;2023-09-07T10:14:00;25.50;99.90
11609;DHT22;5860;52.018;8.536;2023-09-07T10:19:17;25.60;99.90
11609;DHT22;5860;52.018;8.536;2023-09-07T10:21:44;25.90;99.90
11609;DHT22;5860;52.018;8.536;2023-09-07T10:24:12;25.90;99.90
11609;DHT22;5860;52.018;8.536;2023-09-07T10:26:38;25.90;99.90
11609;DHT22;5860;52.018;8.536;2023-09-07T10:29:05;26.10;99.90
11609;DHT22;5860;52.018;8.536;2023-09-07T10:31:32;26.10;99.90
11609;DHT22;5860;52.018;8.536;2023-09-07T10:34:19;26.10;99.90
11609;DHT22;5860;52.018;8.536;2023-09-07T10:36:46;26.20;99.90
11609;DHT22;5860;52.018;8.536;2023-09-07T10:39:13;26.40;99.90
11609;DHT22;5860;52.018;8.536;2023-09-07T10:41:44;26.60;99.90
11609;DHT22;5860;52.018;8.536;2023-09-07T10:44:12;26.70;99.90
11609;DHT22;5860;52.018;8.536;2023-09-07T10:46:40;26.70;99.90
11609;DHT22;5860;52.018;8.536;2023-09-07T10:49:08;26.70;99.90
11609;DHT22;5860;52.018;8.536;2023-09-07T10:51:42;26.80;99.90
11609;DHT22;5860;52.018;8.536;2023-09-07T10:54:16;27.20;99.90
11609;DHT22;5860;52.018;8.536;2023-09-07T10:56:45;27.00;99.90
11609;DHT22;5860;52.018;8.536;2023-09-07T10:59:16;27.20;99.90
11609;DHT22;5860;52.018;8.536;2023-09-07T11:01:44;27.20;99.90
11609;DHT22;5860;52.018;8.536;2023-09-07T11:04:12;27.70;99.90
11609;DHT22;5860;52.018;8.536;2023-09-07T11:06:40;27.60;99.90
11609;DHT22;5860;52.018;8.536;2023-09-07T11:09:09;27.60;99.90
11609;DHT22;5860;52.018;8.536;2023-09-07T11:11:38;27.70;99.90
11609;DHT22;5860;52.018;8.536;2023-09-07T11:14:05;27.50;99.90
11609;DHT22;5860;52.018;8.536;2023-09-07T11:16:33;27.40;99.90
11609;DHT22;5860;52.018;8.536;2023-09-07T11:19:04;27.50;99.90
11609;DHT22;5860;52.018;8.536;2023-09-07T11:21:32;27.30;99.90
11609;DHT22;5860;52.018;8.536;2023-09-07T11:24:01;27.40;99.90
11609;DHT22;5860;52.018;8.536;2023-09-07T11:26:28;27.40;99.90
11609;DHT22;5860;52.018;8.536;2023-09-07T11:28:56;27.20;99.90
11609;DHT22;5860;52.018;8.536;2023-09-07T11:31:24;27.30;99.90
11609;DHT22;5860;52.018;8.536;2023-09-07T11:33:51;27.50;99.90
11609;DHT22;5860;52.018;8.536;2023-09-07T11:36:18;27.60;99.90
11609;DHT22;5860;52.018;8.536;2023-09-07T11:38:45;27.50;99.90
11609;DHT22;5860;52.018;8.536;2023-09-07T11:41:12;27.70;99.90
11609;DHT22;5860;52.018;8.536;2023-09-07T11:43:39;27.80;99.90
11609;DHT22;5860;52.018;8.536;2023-09-07T11:46:07;27.70;99.90
11609;DHT22;5860;52.018;8.536;2023-09-07T11:48:38;27.60;99.90
11609;DHT22;5860;52.018;8.536;2023-09-07T11:51:05;27.70;99.90
11609;DHT22;5860;52.018;8.536;2023-09-07T11:53:33;27.70;99.90
11609;DHT22;5860;52.018;8.536;2023-09-07T11:56:01;27.60;99.90
11609;DHT22;5860;52.018;8.536;2023-09-07T11:58:28;27.60;99.90
11609;DHT22;5860;52.018;8.536;2023-09-07T12:00:56;27.80;99.90
11609;DHT22;5860;52.018;8.536;2023-09-07T12:03:23;27.70;99.90
11609;DHT22;5860;52.018;8.536;2023-09-07T12:05:51;27.90;99.90
11609;DHT22;5860;52.018;8.536;2023-09-07T12:08:18;27.80;99.90
11609;DHT22;5860;52.018;8.536;2023-09-07T12:10:45;27.80;99.90
11609;DHT22;5860;52.018;8.536;2023-09-07T12:13:13;28.10;99.90
11609;DHT22;5860;52.018;8.536;2023-09-07T12:15:41;28.20;99.90
11609;DHT22;5860;52.018;8.536;2023-09-07T12:18:08;28.30;99.90
11609;DHT22;5860;52.018;8.536;2023-09-07T12:20:35;28.20;99.90
11609;DHT22;5860;52.018;8.536;2023-09-07T12:23:03;28.20;99.90
11609;DHT22;5860;52.018;8.536;2023-09-07T12:25:30;28.40;99.90
11609;DHT22;5860;52.018;8.536;2023-09-07T12:27:57;28.40;99.90
11609;DHT22;5860;52.018;8.536;2023-09-07T12:30:24;28.20;99.90
11609;DHT22;5860;52.018;8.536;2023-09-07T12:32:52;28.30;99.90
11609;DHT22;5860;52.018;8.536;2023-09-07T12:35:19;28.50;99.90
11609;DHT22;5860;52.018;8.536;2023-09-07T12:37:47;28.50;99.90
11609;DHT22;5860;52.018;8.536;2023-09-07T12:40:14;28.60;99.90
11609;DHT22;5860;52.018;8.536;2023-09-07T12:42:43;28.40;99.90
11609;DHT22;5860;52.018;8.536;2023-09-07T12:45:12;28.40;99.90
11609;DHT22;5860;52.018;8.536;2023-09-07T12:47:41;28.30;99.90
11609;DHT22;5860;52.018;8.536;2023-09-07T12:50:08;28.50;99.90
11609;DHT22;5860;52.018;8.536;2023-09-07T12:52:35;28.50;99.90
11609;DHT22;5860;52.018;8.536;2023-09-07T12:55:05;28.50;99.90
11609;DHT22;5860;52.018;8.536;2023-09-07T12:57:32;28.60;99.90
11609;DHT22;5860;52.018;8.536;2023-09-07T13:00:00;28.60;99.90
11609;DHT22;5860;52.018;8.536;2023-09-07T13:02:27;28.20;99.90
11609;DHT22;5860;52.018;8.536;2023-09-07T13:04:54;28.40;99.90
11609;DHT22;5860;52.018;8.536;2023-09-07T13:07:22;28.40;99.90
11609;DHT22;5860;52.018;8.536;2023-09-07T13:09:49;28.40;99.90
11609;DHT22;5860;52.018;8.536;2023-09-07T13:12:16;28.60;99.90
11609;DHT22;5860;52.018;8.536;2023-09-07T13:14:43;28.70;99.90
11609;DHT22;5860;52.018;8.536;2023-09-07T13:17:12;28.60;99.90
11609;DHT22;5860;52.018;8.536;2023-09-07T13:19:41;28.70;99.90
11609;DHT22;5860;52.018;8.536;2023-09-07T13:22:09;28.80;99.90
11609;DHT22;5860;52.018;8.536;2023-09-07T13:24:37;28.70;99.90
11609;DHT22;5860;52.018;8.536;2023-09-07T13:27:04;28.60;99.90
11609;DHT22;5860;52.018;8.536;2023-09-07T13:29:32;28.60;99.90
11609;DHT22;5860;52.018;8.536;2023-09-07T13:31:59;28.50;99.90
11609;DHT22;5860;52.018;8.536;2023-09-07T13:34:26;28.80;99.90
11609;DHT22;5860;52.018;8.536;2023-09-07T13:36:54;28.60;99.90
11609;DHT22;5860;52.018;8.536;2023-09-07T13:39:21;28.60;99.90
11609;DHT22;5860;52.018;8.536;2023-09-07T13:41:48;28.80;99.90
11609;DHT22;5860;52.018;8.536;2023-09-07T13:44:16;28.70;99.90
11609;DHT22;5860;52.018;8.536;2023-09-07T13:46:43;28.80;99.90
11609;DHT22;5860;52.018;8.536;2023-09-07T13:49:11;28.50;99.90
11609;DHT22;5860;52.018;8.536;2023-09-07T13:51:40;28.50;99.90
11609;DHT22;5860;52.018;8.536;2023-09-07T13:54:08;28.70;99.90
11609;DHT22;5860;52.018;8.536;2023-09-07T13:56:35;28.90;99.90
11609;DHT22;5860;52.018;8.536;2023-09-07T13:59:06;28.80;99.90
11609;DHT22;5860;52.018;8.536;2023-09-07T14:01:33;28.70;99.90
11609;DHT22;5860;52.018;8.536;2023-09-07T14:04:00;28.90;99.90
11609;DHT22;5860;52.018;8.536;2023-09-07T14:06:27;28.60;99.90
11609;DHT22;5860;52.018;8.536;2023-09-07T14:08:54;28.60;99.90
11609;DHT22;5860;52.018;8.536;2023-09-07T14:11:21;28.70;99.90
11609;DHT22;5860;52.018;8.536;2023-09-07T14:13:51;28.60;99.90
11609;DHT22;5860;52.018;8.536;2023-09-07T14:16:19;28.50;99.90
11609;DHT22;5860;52.018;8.536;2023-09-07T14:18:49;28.60;99.90
11609;DHT22;5860;52.018;8.536;2023-09-07T14:21:17;28.60;99.90
11609;DHT22;5860;52.018;8.536;2023-09-07T14:23:44;28.60;99.90
11609;DHT22;5860;52.018;8.536;2023-09-07T14:26:11;28.60;99.90
11609;DHT22;5860;52.018;8.536;2023-09-07T14:28:39;28.60;99.90
11609;DHT22;5860;52.018;8.536;2023-09-07T14:31:06;28.80;99.90
11609;DHT22;5860;52.018;8.536;2023-09-07T14:33:35;28.80;99.90
11609;DHT22;5860;52.018;8.536;2023-09-07T14:36:06;28.80;99.90
11609;DHT22;5860;52.018;8.536;2023-09-07T14:38:34;28.80;99.90
11609;DHT22;5860;52.018;8.536;2023-09-07T14:41:10;28.80;99.90
11609;DHT22;5860;52.018;8.536;2023-09-07T14:43:48;28.70;99.90
11609;DHT22;5860;52.018;8.536;2023-09-07T14:46:15;28.70;99.90
11609;DHT22;5860;52.018;8.536;2023-09-07T14:48:44;28.70;99.90
11609;DHT22;5860;52.018;8.536;2023-09-07T14:51:11;28.70;99.90
11609;DHT22;5860;52.018;8.536;2023-09-07T14:53:38;28.70;99.90
11609;DHT22;5860;52.018;8.536;2023-09-07T14:56:08;28.90;99.90
11609;DHT22;5860;52.018;8.536;2023-09-07T14:58:35;28.70;99.90
11609;DHT22;5860;52.018;8.536;2023-09-07T15:01:02;28.70;99.90
11609;DHT22;5860;52.018;8.536;2023-09-07T15:03:30;28.60;99.30
11609;DHT22;5860;52.018;8.536;2023-09-07T15:05:58;28.60;99.70
11609;DHT22;5860;52.018;8.536;2023-09-07T15:08:25;28.60;99.90
11609;DHT22;5860;52.018;8.536;2023-09-07T15:10:52;28.60;99.90
11609;DHT22;5860;52.018;8.536;2023-09-07T15:13:19;28.60;99.90
11609;DHT22;5860;52.018;8.536;2023-09-07T15:15:47;28.50;99.90
11609;DHT22;5860;52.018;8.536;2023-09-07T15:18:14;28.50;99.90
11609;DHT22;5860;52.018;8.536;2023-09-07T15:20:41;28.60;99.90
11609;DHT22;5860;52.018;8.536;2023-09-07T15:23:08;28.60;99.40
11609;DHT22;5860;52.018;8.536;2023-09-07T15:25:35;28.60;99.30
11609;DHT22;5860;52.018;8.536;2023-09-07T15:28:02;28.70;99.70
11609;DHT22;5860;52.018;8.536;2023-09-07T15:30:30;28.60;99.60
11609;DHT22;5860;52.018;8.536;2023-09-07T15:32:57;28.60;99.10
11609;DHT22;5860;52.018;8.536;2023-09-07T15:35:23;28.60;99.90
11609;DHT22;5860;52.018;8.536;2023-09-07T15:37:51;28.50;99.60
11609;DHT22;5860;52.018;8.536;2023-09-07T15:40:18;28.50;99.90
11609;DHT22;5860;52.018;8.536;2023-09-07T15:42:44;28.50;99.90
11609;DHT22;5860;52.018;8.536;2023-09-07T15:45:11;28.50;99.90
11609;DHT22;5860;52.018;8.536;2023-09-07T15:47:38;28.50;99.90
11609;DHT22;5860;52.018;8.536;2023-09-07T15:50:06;28.50;99.90
11609;DHT22;5860;52.018;8.536;2023-09-07T15:52:47;28.50;99.90
11609;DHT22;5860;52.018;8.536;2023-09-07T15:55:16;28.50;99.90
11609;DHT22;5860;52.018;8.536;2023-09-07T15:57:43;28.50;99.90
11609;DHT22;5860;52.018;8.536;2023-09-07T16:00:10;28.40;99.90